createdAt,value
2017-03-22T00:00:30.594Z,956.22
2017-03-22T00:01:11.180Z,956.23
2017-03-22T00:01:51.772Z,956.25
2017-03-22T00:02:32.354Z,956.18
2017-03-22T00:03:12.918Z,956.27
2017-03-22T00:03:53.504Z,956.26
2017-03-22T00:04:34.081Z,956.24
2017-03-22T00:05:14.668Z,956.28
2017-03-22T00:05:55.251Z,956.29
2017-03-22T00:06:35.830Z,956.29
2017-03-22T00:07:16.411Z,956.27
2017-03-22T00:07:57.000Z,956.27
2017-03-22T00:08:37.569Z,956.25
2017-03-22T00:09:18.142Z,956.21
2017-03-22T00:09:58.724Z,956.19
2017-03-22T00:10:39.315Z,956.14
2017-03-22T00:12:37.029Z,956.04
2017-03-22T00:13:17.605Z,956.03
2017-03-22T00:13:58.190Z,956
2017-03-22T00:14:38.770Z,955.96
2017-03-22T00:15:19.347Z,955.97
2017-03-22T00:15:59.934Z,956.02
2017-03-22T00:16:40.520Z,956.11
2017-03-22T00:17:21.100Z,956.16
2017-03-22T00:18:01.681Z,956.22
2017-03-22T00:18:42.265Z,956.29
2017-03-22T00:19:22.844Z,956.28
2017-03-22T00:20:03.424Z,956.25
2017-03-22T00:20:44.005Z,956.25
2017-03-22T00:21:24.589Z,956.23
2017-03-22T00:22:05.162Z,956.2
2017-03-22T00:22:45.745Z,956.26
2017-03-22T00:23:26.328Z,956.22
2017-03-22T00:24:06.908Z,956.2
2017-03-22T00:24:47.494Z,956.21
2017-03-22T00:25:28.069Z,956.2
2017-03-22T00:27:46.013Z,956.24
2017-03-22T00:28:26.606Z,956.24
2017-03-22T00:29:07.177Z,956.24
2017-03-22T00:29:47.759Z,956.24
2017-03-22T00:30:28.343Z,956.19
2017-03-22T00:31:08.927Z,956.2
2017-03-22T00:31:49.502Z,956.16
2017-03-22T00:32:30.079Z,956.14
2017-03-22T00:33:10.655Z,956.15
2017-03-22T00:33:51.237Z,956.13
2017-03-22T00:34:31.819Z,956.05
2017-03-22T00:35:12.395Z,956.11
2017-03-22T00:35:52.977Z,956.1
2017-03-22T00:36:33.557Z,956.11
2017-03-22T00:37:14.134Z,956.08
2017-03-22T00:37:54.722Z,956.05
2017-03-22T00:38:35.297Z,955.97
2017-03-22T00:39:15.878Z,955.97
2017-03-22T00:39:56.451Z,955.96
2017-03-22T00:40:37.036Z,955.93
2017-03-22T00:41:17.605Z,955.97
2017-03-22T00:41:58.186Z,955.99
2017-03-22T00:44:23.620Z,956.07
2017-03-22T00:45:04.193Z,956.09
2017-03-22T00:45:44.774Z,956.1
2017-03-22T00:46:25.345Z,956.13
2017-03-22T00:47:05.929Z,956.14
2017-03-22T00:47:46.508Z,956.15
2017-03-22T00:48:27.087Z,956.12
2017-03-22T00:49:07.671Z,956.17
2017-03-22T00:49:48.243Z,956.16
2017-03-22T00:50:28.829Z,956.14
2017-03-22T00:51:09.412Z,956.16
2017-03-22T00:51:49.990Z,956.11
2017-03-22T00:52:30.576Z,956.14
2017-03-22T00:53:11.145Z,956.07
2017-03-22T00:53:51.719Z,956.1
2017-03-22T00:54:32.304Z,956.06
2017-03-22T00:55:12.876Z,956.07
2017-03-22T00:55:53.459Z,956.05
2017-03-22T00:56:34.045Z,956.01
2017-03-22T00:57:14.626Z,956.03
2017-03-22T00:57:55.198Z,956.04
2017-03-22T00:58:35.781Z,956.04
2017-03-22T00:59:16.362Z,956.06
2017-03-22T00:59:56.946Z,956.07
2017-03-22T01:00:37.519Z,956.07
2017-03-22T01:01:18.103Z,956.05
2017-03-22T01:01:58.690Z,956.03
2017-03-22T01:02:39.257Z,956.05
2017-03-22T01:03:19.842Z,956.1
2017-03-22T01:04:00.424Z,956.06
2017-03-22T01:05:53.037Z,956.07
2017-03-22T01:06:33.618Z,956.08
2017-03-22T01:07:14.197Z,956.11
2017-03-22T01:07:54.782Z,956.09
2017-03-22T01:08:35.361Z,956.1
2017-03-22T01:09:15.944Z,956.06
2017-03-22T01:09:56.521Z,956.07
2017-03-22T01:10:37.099Z,956.09
2017-03-22T01:11:17.682Z,956.1
2017-03-22T01:11:58.255Z,956.11
2017-03-22T01:12:38.841Z,956.1
2017-03-22T01:13:19.426Z,956.11
2017-03-22T01:14:00.011Z,956.11
2017-03-22T01:14:40.590Z,956.08
2017-03-22T01:15:21.173Z,956.05
2017-03-22T01:16:01.743Z,956.03
2017-03-22T01:16:42.324Z,956.01
2017-03-22T01:17:22.884Z,956.04
2017-03-22T01:18:03.468Z,956.01
2017-03-22T01:18:44.044Z,956.03
2017-03-22T01:19:24.614Z,956
2017-03-22T01:20:05.189Z,955.94
2017-03-22T01:20:45.774Z,955.97
2017-03-22T01:21:26.352Z,955.94
2017-03-22T01:22:06.927Z,955.95
2017-03-22T01:22:47.508Z,955.97
2017-03-22T01:23:28.091Z,955.97
2017-03-22T01:24:08.676Z,955.92
2017-03-22T01:24:49.253Z,955.94
2017-03-22T01:25:29.830Z,955.87
2017-03-22T01:26:10.413Z,955.9
2017-03-22T01:26:50.984Z,955.88
2017-03-22T01:27:31.563Z,955.87
2017-03-22T01:28:12.151Z,955.87
2017-03-22T01:28:52.720Z,955.87
2017-03-22T01:29:33.303Z,955.79
2017-03-22T01:30:13.886Z,955.84
2017-03-22T01:30:54.479Z,955.81
2017-03-22T01:31:35.052Z,955.78
2017-03-22T01:32:15.642Z,955.72
2017-03-22T01:32:56.215Z,955.76
2017-03-22T01:33:36.806Z,955.7
2017-03-22T01:34:17.375Z,955.7
2017-03-22T01:34:57.950Z,955.67
2017-03-22T01:35:38.526Z,955.71
2017-03-22T01:36:19.110Z,955.68
2017-03-22T01:36:59.692Z,955.66
2017-03-22T01:37:40.274Z,955.69
2017-03-22T01:38:20.846Z,955.7
2017-03-22T01:39:01.431Z,955.63
2017-03-22T01:39:42.023Z,955.66
2017-03-22T01:40:22.591Z,955.68
2017-03-22T01:41:03.171Z,955.67
2017-03-22T01:41:43.748Z,955.65
2017-03-22T01:42:24.329Z,955.7
2017-03-22T01:43:04.915Z,955.67
2017-03-22T01:43:45.546Z,955.69
2017-03-22T01:44:26.124Z,955.68
2017-03-22T01:45:06.693Z,955.69
2017-03-22T01:45:47.271Z,955.67
2017-03-22T01:46:27.861Z,955.69
2017-03-22T01:47:08.443Z,955.69
2017-03-22T01:47:49.017Z,955.7
2017-03-22T01:48:29.611Z,955.73
2017-03-22T01:49:10.190Z,955.77
2017-03-22T01:49:50.770Z,955.78
2017-03-22T01:50:31.358Z,955.79
2017-03-22T01:51:11.935Z,955.83
2017-03-22T01:51:52.519Z,955.84
2017-03-22T01:52:33.104Z,955.81
2017-03-22T01:53:13.696Z,955.84
2017-03-22T01:53:54.296Z,955.87
2017-03-22T01:54:34.844Z,955.85
2017-03-22T01:55:15.437Z,955.86
2017-03-22T01:55:56.032Z,955.83
2017-03-22T01:56:36.606Z,955.86
2017-03-22T01:57:17.195Z,955.82
2017-03-22T01:59:35.134Z,955.86
2017-03-22T02:00:15.718Z,955.84
2017-03-22T02:00:56.299Z,955.86
2017-03-22T02:01:51.522Z,955.87
2017-03-22T02:02:32.098Z,955.79
2017-03-22T02:03:12.688Z,955.82
2017-03-22T02:03:53.266Z,955.8
2017-03-22T02:04:33.845Z,955.81
2017-03-22T02:05:14.420Z,955.81
2017-03-22T02:05:55.001Z,955.82
2017-03-22T02:06:35.593Z,955.8
2017-03-22T02:07:16.170Z,955.81
2017-03-22T02:07:56.754Z,955.79
2017-03-22T02:08:37.326Z,955.83
2017-03-22T02:09:17.907Z,955.85
2017-03-22T02:09:58.499Z,955.84
2017-03-22T02:10:39.080Z,955.82
2017-03-22T02:11:19.653Z,955.85
2017-03-22T02:12:00.233Z,955.86
2017-03-22T02:12:40.821Z,955.86
2017-03-22T02:13:21.405Z,955.86
2017-03-22T02:14:01.971Z,955.83
2017-03-22T02:14:42.559Z,955.83
2017-03-22T02:15:23.143Z,955.82
2017-03-22T02:16:03.726Z,955.84
2017-03-22T02:16:44.299Z,955.86
2017-03-22T02:17:24.877Z,955.88
2017-03-22T02:18:06.177Z,955.81
2017-03-22T02:18:46.365Z,955.85
2017-03-22T02:19:26.943Z,955.87
2017-03-22T02:20:07.515Z,955.89
2017-03-22T02:20:48.106Z,955.9
2017-03-22T02:21:43.624Z,955.86
2017-03-22T02:22:24.213Z,955.86
2017-03-22T02:23:04.783Z,955.88
2017-03-22T02:23:45.368Z,955.89
2017-03-22T02:24:25.938Z,955.91
2017-03-22T02:25:06.518Z,955.92
2017-03-22T02:25:47.108Z,955.9
2017-03-22T02:26:27.679Z,955.91
2017-03-22T02:27:08.258Z,955.88
2017-03-22T02:27:48.836Z,955.91
2017-03-22T02:28:29.418Z,955.92
2017-03-22T02:29:10.005Z,955.9
2017-03-22T02:29:50.579Z,955.92
2017-03-22T02:30:31.159Z,955.92
2017-03-22T02:31:11.740Z,955.91
2017-03-22T02:31:52.314Z,955.92
2017-03-22T02:32:32.898Z,955.9
2017-03-22T02:33:13.487Z,955.91
2017-03-22T02:33:54.091Z,955.91
2017-03-22T02:34:34.644Z,955.92
2017-03-22T02:35:15.221Z,955.92
2017-03-22T02:35:55.803Z,955.9
2017-03-22T02:36:36.375Z,955.93
2017-03-22T02:37:16.958Z,955.89
2017-03-22T02:37:57.539Z,955.93
2017-03-22T02:38:38.115Z,955.9
2017-03-22T02:39:18.702Z,955.9
2017-03-22T02:39:59.297Z,955.91
2017-03-22T02:40:39.852Z,955.92
2017-03-22T02:41:20.423Z,955.92
2017-03-22T02:42:01.004Z,955.91
2017-03-22T02:42:41.583Z,955.91
2017-03-22T02:43:22.161Z,955.87
2017-03-22T02:44:02.749Z,955.82
2017-03-22T02:44:43.335Z,955.77
2017-03-22T02:45:23.916Z,955.81
2017-03-22T02:46:04.494Z,955.77
2017-03-22T02:46:45.076Z,955.73
2017-03-22T02:47:25.645Z,955.69
2017-03-22T02:48:06.235Z,955.71
2017-03-22T02:48:46.813Z,955.68
2017-03-22T02:49:27.402Z,955.72
2017-03-22T02:50:07.977Z,955.69
2017-03-22T02:50:48.565Z,955.71
2017-03-22T02:51:29.150Z,955.75
2017-03-22T02:52:09.735Z,955.72
2017-03-22T02:52:50.334Z,955.7
2017-03-22T02:53:30.901Z,955.69
2017-03-22T02:54:26.136Z,955.7
2017-03-22T02:55:06.710Z,955.72
2017-03-22T02:55:47.289Z,955.63
2017-03-22T02:56:27.867Z,955.66
2017-03-22T02:57:08.449Z,955.68
2017-03-22T02:57:49.024Z,955.63
2017-03-22T02:58:29.600Z,955.67
2017-03-22T03:00:22.215Z,955.68
2017-03-22T03:01:02.804Z,955.67
2017-03-22T03:01:43.391Z,955.7
2017-03-22T03:02:23.969Z,955.67
2017-03-22T03:03:04.546Z,955.66
2017-03-22T03:03:45.129Z,955.68
2017-03-22T03:04:25.707Z,955.65
2017-03-22T03:06:24.906Z,955.66
2017-03-22T03:07:05.480Z,955.66
2017-03-22T03:07:46.062Z,955.65
2017-03-22T03:08:26.638Z,955.67
2017-03-22T03:09:07.219Z,955.64
2017-03-22T03:09:47.801Z,955.64
2017-03-22T03:10:43.085Z,955.6
2017-03-22T03:11:23.661Z,955.64
2017-03-22T03:12:04.234Z,955.63
2017-03-22T03:12:44.817Z,955.62
2017-03-22T03:13:25.394Z,955.6
2017-03-22T03:14:05.982Z,955.63
2017-03-22T03:14:46.557Z,955.63
2017-03-22T03:15:27.133Z,955.67
2017-03-22T03:16:07.716Z,955.68
2017-03-22T03:16:48.286Z,955.68
2017-03-22T03:17:28.867Z,955.68
2017-03-22T03:18:09.451Z,955.71
2017-03-22T03:18:50.025Z,955.69
2017-03-22T03:19:30.599Z,955.68
2017-03-22T03:20:11.184Z,955.73
2017-03-22T03:20:51.769Z,955.7
2017-03-22T03:21:32.347Z,955.73
2017-03-22T03:22:12.931Z,955.73
2017-03-22T03:22:53.502Z,955.75
2017-03-22T03:23:34.069Z,955.72
2017-03-22T03:24:14.655Z,955.7
2017-03-22T03:24:55.227Z,955.73
2017-03-22T03:25:35.808Z,955.75
2017-03-22T03:26:16.391Z,955.72
2017-03-22T03:26:56.969Z,955.79
2017-03-22T03:27:37.555Z,955.85
2017-03-22T03:28:18.135Z,955.82
2017-03-22T03:28:58.723Z,955.78
2017-03-22T03:29:39.376Z,955.8
2017-03-22T03:30:19.961Z,955.83
2017-03-22T03:31:00.537Z,955.79
2017-03-22T03:31:41.117Z,955.77
2017-03-22T03:32:21.702Z,955.79
2017-03-22T03:33:02.286Z,955.77
2017-03-22T03:33:42.855Z,955.78
2017-03-22T03:34:23.450Z,955.79
2017-03-22T03:35:04.026Z,955.83
2017-03-22T03:35:44.606Z,955.82
2017-03-22T03:36:25.180Z,955.82
2017-03-22T03:37:05.765Z,955.84
2017-03-22T03:37:46.345Z,955.87
2017-03-22T03:38:26.917Z,955.81
2017-03-22T03:39:07.493Z,955.82
2017-03-22T03:39:48.069Z,955.83
2017-03-22T03:40:28.657Z,955.81
2017-03-22T03:41:09.237Z,955.79
2017-03-22T03:41:49.821Z,955.83
2017-03-22T03:42:30.409Z,955.81
2017-03-22T03:43:10.979Z,955.79
2017-03-22T03:43:51.554Z,955.79
2017-03-22T03:44:32.136Z,955.81
2017-03-22T03:45:12.727Z,955.76
2017-03-22T03:45:53.312Z,955.84
2017-03-22T03:46:33.893Z,955.86
2017-03-22T03:47:14.478Z,955.81
2017-03-22T03:47:55.061Z,955.8
2017-03-22T03:48:35.633Z,955.83
2017-03-22T03:49:16.219Z,955.84
2017-03-22T03:49:56.807Z,955.84
2017-03-22T03:50:37.384Z,955.82
2017-03-22T03:51:17.949Z,955.84
2017-03-22T03:51:58.525Z,955.83
2017-03-22T03:52:39.106Z,955.85
2017-03-22T03:53:19.686Z,955.88
2017-03-22T03:54:00.263Z,955.86
2017-03-22T03:54:40.835Z,955.86
2017-03-22T03:55:21.425Z,955.89
2017-03-22T03:56:02.007Z,955.88
2017-03-22T03:56:42.596Z,955.86
2017-03-22T03:57:23.176Z,955.87
2017-03-22T03:58:03.737Z,955.88
2017-03-22T03:58:44.331Z,955.83
2017-03-22T03:59:25.130Z,955.85
2017-03-22T04:00:05.719Z,955.86
2017-03-22T04:00:46.305Z,955.85
2017-03-22T04:01:26.868Z,955.81
2017-03-22T04:02:07.475Z,955.83
2017-03-22T04:02:48.044Z,955.86
2017-03-22T04:03:28.619Z,955.89
2017-03-22T04:04:09.214Z,955.91
2017-03-22T04:04:49.801Z,955.96
2017-03-22T04:05:30.383Z,955.95
2017-03-22T04:06:10.966Z,955.96
2017-03-22T04:06:51.538Z,955.96
2017-03-22T04:07:32.124Z,955.96
2017-03-22T04:08:12.820Z,955.97
2017-03-22T04:08:53.393Z,955.97
2017-03-22T04:09:33.973Z,955.99
2017-03-22T04:10:29.458Z,955.99
2017-03-22T04:11:10.041Z,955.99
2017-03-22T04:11:50.628Z,956.01
2017-03-22T04:12:31.195Z,956.06
2017-03-22T04:13:11.775Z,956.01
2017-03-22T04:13:52.343Z,956.05
2017-03-22T04:14:32.921Z,956.05
2017-03-22T04:15:13.502Z,956.06
2017-03-22T04:15:54.086Z,956.02
2017-03-22T04:16:34.659Z,956.04
2017-03-22T04:17:15.244Z,956.05
2017-03-22T04:17:55.826Z,956.05
2017-03-22T04:18:36.396Z,956.08
2017-03-22T04:19:16.977Z,956.05
2017-03-22T04:19:57.560Z,956.09
2017-03-22T04:20:38.146Z,956.08
2017-03-22T04:21:18.732Z,956.1
2017-03-22T04:21:59.448Z,956.11
2017-03-22T04:22:40.343Z,956.09
2017-03-22T04:23:20.923Z,956.07
2017-03-22T04:24:01.496Z,956.07
2017-03-22T04:24:42.348Z,956.05
2017-03-22T04:25:22.922Z,956.09
2017-03-22T04:26:03.497Z,956.02
2017-03-22T04:26:44.128Z,956.08
2017-03-22T04:27:24.706Z,956.05
2017-03-22T04:28:05.289Z,956.03
2017-03-22T04:28:45.873Z,955.98
2017-03-22T04:29:26.714Z,956.01
2017-03-22T04:30:07.286Z,956.03
2017-03-22T04:30:48.174Z,955.99
2017-03-22T04:31:29.022Z,956.03
2017-03-22T04:32:09.596Z,956.06
2017-03-22T04:32:50.298Z,956.06
2017-03-22T04:33:31.457Z,956.04
2017-03-22T04:34:12.039Z,956.03
2017-03-22T04:34:53.020Z,956.03
2017-03-22T04:35:34.070Z,956.04
2017-03-22T04:36:15.102Z,956.01
2017-03-22T04:36:55.975Z,956.04
2017-03-22T04:37:36.564Z,956.02
2017-03-22T04:38:17.501Z,955.99
2017-03-22T04:38:58.581Z,955.98
2017-03-22T04:39:39.251Z,955.99
2017-03-22T04:40:20.084Z,955.99
2017-03-22T04:41:00.650Z,955.96
2017-03-22T04:43:10.135Z,955.97
2017-03-22T04:43:51.243Z,955.98
2017-03-22T04:44:32.018Z,955.99
2017-03-22T04:45:12.909Z,955.96
2017-03-22T04:45:53.484Z,955.95
2017-03-22T04:46:34.066Z,955.97
2017-03-22T04:47:14.647Z,955.92
2017-03-22T04:47:55.225Z,955.94
2017-03-22T04:48:35.809Z,955.92
2017-03-22T04:49:16.383Z,955.92
2017-03-22T04:49:56.969Z,955.9
2017-03-22T04:50:37.545Z,955.86
2017-03-22T04:51:18.124Z,955.9
2017-03-22T04:51:58.705Z,955.92
2017-03-22T04:52:39.322Z,955.9
2017-03-22T04:53:24.614Z,955.84
2017-03-22T04:54:05.193Z,955.87
2017-03-22T04:54:45.777Z,955.84
2017-03-22T04:55:26.352Z,955.8
2017-03-22T04:56:06.920Z,955.84
2017-03-22T04:56:47.513Z,955.8
2017-03-22T04:57:28.090Z,955.79
2017-03-22T04:58:08.676Z,955.79
2017-03-22T04:58:49.252Z,955.78
2017-03-22T04:59:29.823Z,955.79
2017-03-22T05:00:10.397Z,955.79
2017-03-22T05:00:50.978Z,955.8
2017-03-22T05:01:31.553Z,955.79
2017-03-22T05:02:12.132Z,955.81
2017-03-22T05:02:52.709Z,955.78
2017-03-22T05:03:33.293Z,955.77
2017-03-22T05:04:13.876Z,955.82
2017-03-22T05:04:54.441Z,955.83
2017-03-22T05:05:35.032Z,955.85
2017-03-22T05:06:15.614Z,955.82
2017-03-22T05:06:56.190Z,955.82
2017-03-22T05:07:36.775Z,955.82
2017-03-22T05:08:17.356Z,955.84
2017-03-22T05:08:57.925Z,955.83
2017-03-22T05:09:38.511Z,955.83
2017-03-22T05:10:19.077Z,955.83
2017-03-22T05:10:59.655Z,955.82
2017-03-22T05:11:40.231Z,955.81
2017-03-22T05:12:20.813Z,955.81
2017-03-22T05:13:01.401Z,955.81
2017-03-22T05:13:41.977Z,955.78
2017-03-22T05:14:22.556Z,955.83
2017-03-22T05:15:03.131Z,955.74
2017-03-22T05:15:43.718Z,955.74
2017-03-22T05:16:24.296Z,955.75
2017-03-22T05:17:04.876Z,955.71
2017-03-22T05:17:45.467Z,955.72
2017-03-22T05:18:26.041Z,955.75
2017-03-22T05:19:06.598Z,955.76
2017-03-22T05:19:47.173Z,955.78
2017-03-22T05:20:27.748Z,955.75
2017-03-22T05:21:08.330Z,955.74
2017-03-22T05:21:48.910Z,955.76
2017-03-22T05:22:29.502Z,955.77
2017-03-22T05:24:27.205Z,955.87
2017-03-22T05:25:07.782Z,955.82
2017-03-22T05:25:48.371Z,955.8
2017-03-22T05:26:28.943Z,955.77
2017-03-22T05:27:09.479Z,955.77
2017-03-22T05:27:50.014Z,955.77
2017-03-22T05:28:30.558Z,955.77
2017-03-22T05:29:11.130Z,955.76
2017-03-22T05:29:51.666Z,955.76
2017-03-22T05:30:32.236Z,955.73
2017-03-22T05:31:12.826Z,955.74
2017-03-22T05:31:53.399Z,955.68
2017-03-22T05:32:33.962Z,955.73
2017-03-22T05:33:14.539Z,955.68
2017-03-22T05:33:55.117Z,955.67
2017-03-22T05:34:35.693Z,955.68
2017-03-22T05:35:16.286Z,955.65
2017-03-22T05:35:56.863Z,955.71
2017-03-22T05:36:37.445Z,955.7
2017-03-22T05:37:18.030Z,955.69
2017-03-22T05:37:58.613Z,955.68
2017-03-22T05:38:39.142Z,955.68
2017-03-22T05:39:19.731Z,955.64
2017-03-22T05:40:00.309Z,955.64
2017-03-22T05:40:40.828Z,955.64
2017-03-22T05:41:21.371Z,955.64
2017-03-22T05:42:01.951Z,955.73
2017-03-22T05:42:42.538Z,955.77
2017-03-22T05:43:23.112Z,955.77
2017-03-22T05:44:03.702Z,955.76
2017-03-22T05:44:44.223Z,955.76
2017-03-22T05:45:24.819Z,955.76
2017-03-22T05:46:05.381Z,955.84
2017-03-22T05:48:23.318Z,955.76
2017-03-22T05:49:03.893Z,955.79
2017-03-22T05:49:44.466Z,955.77
2017-03-22T05:50:25.048Z,955.75
2017-03-22T05:51:05.624Z,955.75
2017-03-22T05:51:46.205Z,955.73
2017-03-22T05:52:26.779Z,955.74
2017-03-22T05:53:07.374Z,955.73
2017-03-22T05:53:47.943Z,955.73
2017-03-22T05:54:28.527Z,955.78
2017-03-22T05:55:09.119Z,955.73
2017-03-22T05:55:49.692Z,955.74
2017-03-22T05:56:30.265Z,955.75
2017-03-22T05:57:10.839Z,955.73
2017-03-22T05:57:51.422Z,955.69
2017-03-22T05:58:32.005Z,955.68
2017-03-22T05:59:12.587Z,955.68
2017-03-22T05:59:53.169Z,955.64
2017-03-22T06:00:33.745Z,955.64
2017-03-22T06:01:14.320Z,955.63
2017-03-22T06:01:54.895Z,955.58
2017-03-22T06:02:35.473Z,955.56
2017-03-22T06:03:16.043Z,955.52
2017-03-22T06:03:56.625Z,955.51
2017-03-22T06:04:37.201Z,955.5
2017-03-22T06:05:17.784Z,955.51
2017-03-22T06:05:58.348Z,955.48
2017-03-22T06:06:38.931Z,955.51
2017-03-22T06:07:19.498Z,955.5
2017-03-22T06:08:00.072Z,955.48
2017-03-22T06:08:40.655Z,955.5
2017-03-22T06:09:21.230Z,955.48
2017-03-22T06:10:01.810Z,955.46
2017-03-22T06:10:42.392Z,955.47
2017-03-22T06:11:22.967Z,955.49
2017-03-22T06:12:03.553Z,955.49
2017-03-22T06:12:44.126Z,955.49
2017-03-22T06:13:24.704Z,955.52
2017-03-22T06:14:05.279Z,955.49
2017-03-22T06:14:45.850Z,955.52
2017-03-22T06:15:26.435Z,955.56
2017-03-22T06:16:07.013Z,955.56
2017-03-22T06:16:47.584Z,955.58
2017-03-22T06:17:28.168Z,955.62
2017-03-22T06:18:08.725Z,955.61
2017-03-22T06:19:03.995Z,955.6
2017-03-22T06:19:44.581Z,955.66
2017-03-22T06:20:25.142Z,955.67
2017-03-22T06:21:05.719Z,955.68
2017-03-22T06:21:46.287Z,955.68
2017-03-22T06:22:26.856Z,955.68
2017-03-22T06:23:07.433Z,955.68
2017-03-22T06:23:48.014Z,955.67
2017-03-22T06:24:28.598Z,955.68
2017-03-22T06:25:09.174Z,955.67
2017-03-22T06:25:49.751Z,955.69
2017-03-22T06:26:30.328Z,955.69
2017-03-22T06:28:48.253Z,955.77
2017-03-22T06:29:28.834Z,955.81
2017-03-22T06:30:09.419Z,955.84
2017-03-22T06:30:49.996Z,955.87
2017-03-22T06:31:30.569Z,955.89
2017-03-22T06:32:11.149Z,955.92
2017-03-22T06:32:51.725Z,955.85
2017-03-22T06:34:44.335Z,955.83
2017-03-22T06:35:24.920Z,955.84
2017-03-22T06:36:05.491Z,955.82
2017-03-22T06:36:46.059Z,955.78
2017-03-22T06:37:26.646Z,955.81
2017-03-22T06:38:07.217Z,955.81
2017-03-22T06:38:47.785Z,955.78
2017-03-22T06:39:28.365Z,955.74
2017-03-22T06:40:08.942Z,955.69
2017-03-22T06:40:49.527Z,955.7
2017-03-22T06:41:30.111Z,955.65
2017-03-22T06:42:10.691Z,955.69
2017-03-22T06:42:51.263Z,955.67
2017-03-22T06:43:31.839Z,955.7
2017-03-22T06:44:12.405Z,955.75
2017-03-22T06:44:52.982Z,955.77
2017-03-22T06:45:33.568Z,955.87
2017-03-22T06:46:14.150Z,955.83
2017-03-22T06:46:54.728Z,955.85
2017-03-22T06:47:35.349Z,955.8
2017-03-22T06:48:15.883Z,955.81
2017-03-22T06:48:56.463Z,955.8
2017-03-22T06:49:37.034Z,955.82
2017-03-22T06:50:17.613Z,955.81
2017-03-22T06:50:58.192Z,955.84
2017-03-22T06:51:38.766Z,955.85
2017-03-22T06:52:34.002Z,955.96
2017-03-22T06:53:14.591Z,956.02
2017-03-22T06:53:55.170Z,956.05
2017-03-22T06:54:35.755Z,956.12
2017-03-22T06:55:16.340Z,956.15
2017-03-22T06:55:56.915Z,956.22
2017-03-22T06:56:37.500Z,956.21
2017-03-22T06:57:18.062Z,956.21
2017-03-22T06:57:58.647Z,956.24
2017-03-22T06:58:39.224Z,956.19
2017-03-22T06:59:19.796Z,956.2
2017-03-22T07:00:00.384Z,956.17
2017-03-22T07:00:40.972Z,956.12
2017-03-22T07:01:21.551Z,956.12
2017-03-22T07:03:19.269Z,956.06
2017-03-22T07:03:59.836Z,956.06
2017-03-22T07:04:40.439Z,956.12
2017-03-22T07:05:20.988Z,956.11
2017-03-22T07:06:01.571Z,956.1
2017-03-22T07:06:42.152Z,956.12
2017-03-22T07:07:22.726Z,956.14
2017-03-22T07:08:03.313Z,956.09
2017-03-22T07:08:43.884Z,956.08
2017-03-22T07:09:24.465Z,956.16
2017-03-22T07:10:05.050Z,956.13
2017-03-22T07:10:45.633Z,956.12
2017-03-22T07:11:26.208Z,956.15
2017-03-22T07:12:06.787Z,956.17
2017-03-22T07:12:47.364Z,956.21
2017-03-22T07:13:27.942Z,956.21
2017-03-22T07:14:08.528Z,956.25
2017-03-22T07:14:49.108Z,956.22
2017-03-22T07:15:29.689Z,956.23
2017-03-22T07:16:10.263Z,956.19
2017-03-22T07:16:50.858Z,956.16
2017-03-22T07:17:31.431Z,956.18
2017-03-22T07:18:12.019Z,956.22
2017-03-22T07:18:52.602Z,956.23
2017-03-22T07:19:33.178Z,956.23
2017-03-22T07:20:13.756Z,956.27
2017-03-22T07:20:54.340Z,956.22
2017-03-22T07:21:34.922Z,956.28
2017-03-22T07:22:15.504Z,956.25
2017-03-22T07:22:56.091Z,956.26
2017-03-22T07:23:36.667Z,956.29
2017-03-22T07:24:17.246Z,956.25
2017-03-22T07:24:57.823Z,956.24
2017-03-22T07:25:38.406Z,956.26
2017-03-22T07:26:18.992Z,956.27
2017-03-22T07:26:59.563Z,956.24
2017-03-22T07:27:40.154Z,956.28
2017-03-22T07:28:20.735Z,956.3
2017-03-22T07:29:01.319Z,956.26
2017-03-22T07:29:41.900Z,956.28
2017-03-22T07:30:22.483Z,956.3
2017-03-22T07:31:03.066Z,956.3
2017-03-22T07:31:58.266Z,956.34
2017-03-22T07:32:38.841Z,956.34
2017-03-22T07:33:19.427Z,956.36
2017-03-22T07:34:00.004Z,956.38
2017-03-22T07:34:40.584Z,956.36
2017-03-22T07:35:21.153Z,956.31
2017-03-22T07:36:01.735Z,956.29
2017-03-22T07:36:42.317Z,956.26
2017-03-22T07:37:22.899Z,956.24
2017-03-22T07:38:03.489Z,956.25
2017-03-22T07:38:44.072Z,956.23
2017-03-22T07:39:24.650Z,956.26
2017-03-22T07:40:05.250Z,956.2
2017-03-22T07:40:45.814Z,956.2
2017-03-22T07:41:40.930Z,956.25
2017-03-22T07:42:21.502Z,956.26
2017-03-22T07:43:02.085Z,956.25
2017-03-22T07:43:42.656Z,956.23
2017-03-22T07:44:23.234Z,956.3
2017-03-22T07:45:03.818Z,956.31
2017-03-22T07:45:44.397Z,956.32
2017-03-22T07:46:24.963Z,956.32
2017-03-22T07:47:05.548Z,956.33
2017-03-22T07:47:46.130Z,956.37
2017-03-22T07:48:26.716Z,956.36
2017-03-22T07:49:07.295Z,956.39
2017-03-22T07:49:47.861Z,956.4
2017-03-22T07:50:28.434Z,956.35
2017-03-22T07:51:09.023Z,956.38
2017-03-22T07:51:49.622Z,956.39
2017-03-22T07:52:30.183Z,956.39
2017-03-22T07:53:10.769Z,956.38
2017-03-22T07:55:03.377Z,956.32
2017-03-22T07:55:43.942Z,956.33
2017-03-22T07:56:24.530Z,956.27
2017-03-22T07:57:05.104Z,956.28
2017-03-22T07:57:45.674Z,956.3
2017-03-22T07:58:26.249Z,956.29
2017-03-22T07:59:06.829Z,956.31
2017-03-22T07:59:47.409Z,956.27
2017-03-22T08:00:27.990Z,956.27
2017-03-22T08:01:08.574Z,956.21
2017-03-22T08:01:49.153Z,956.16
2017-03-22T08:02:29.733Z,956.13
2017-03-22T08:03:10.303Z,956.15
2017-03-22T08:03:50.888Z,956.21
2017-03-22T08:04:31.469Z,956.25
2017-03-22T08:05:12.051Z,956.31
2017-03-22T08:05:52.625Z,956.36
2017-03-22T08:06:33.201Z,956.43
2017-03-22T08:07:13.770Z,956.44
2017-03-22T08:07:54.343Z,956.49
2017-03-22T08:08:34.922Z,956.49
2017-03-22T08:09:15.500Z,956.54
2017-03-22T08:09:56.080Z,956.52
2017-03-22T08:10:36.670Z,956.54
2017-03-22T08:11:17.246Z,956.58
2017-03-22T08:11:57.830Z,956.59
2017-03-22T08:12:38.416Z,956.59
2017-03-22T08:13:19.003Z,956.59
2017-03-22T08:13:59.570Z,956.59
2017-03-22T08:14:40.151Z,956.61
2017-03-22T08:15:20.734Z,956.63
2017-03-22T08:16:01.314Z,956.63
2017-03-22T08:16:41.896Z,956.68
2017-03-22T08:17:22.469Z,956.68
2017-03-22T08:18:03.052Z,956.68
2017-03-22T08:18:43.625Z,956.71
2017-03-22T08:19:24.206Z,956.7
2017-03-22T08:20:04.789Z,956.71
2017-03-22T08:20:45.365Z,956.68
2017-03-22T08:21:25.945Z,956.67
2017-03-22T08:22:06.514Z,956.68
2017-03-22T08:22:47.093Z,956.69
2017-03-22T08:23:27.678Z,956.63
2017-03-22T08:24:08.252Z,956.67
2017-03-22T08:24:48.822Z,956.59
2017-03-22T08:25:29.394Z,956.6
2017-03-22T08:26:09.965Z,956.58
2017-03-22T08:26:50.562Z,956.5
2017-03-22T08:27:31.143Z,956.57
2017-03-22T08:28:11.721Z,956.52
2017-03-22T08:28:52.306Z,956.54
2017-03-22T08:29:32.887Z,956.53
2017-03-22T08:30:13.466Z,956.52
2017-03-22T08:30:54.028Z,956.54
2017-03-22T08:31:34.620Z,956.51
2017-03-22T08:32:15.205Z,956.55
2017-03-22T08:32:55.788Z,956.5
2017-03-22T08:33:36.378Z,956.52
2017-03-22T08:34:16.958Z,956.53
2017-03-22T08:34:57.538Z,956.53
2017-03-22T08:35:38.118Z,956.56
2017-03-22T08:36:18.698Z,956.55
2017-03-22T08:36:59.277Z,956.54
2017-03-22T08:37:39.868Z,956.56
2017-03-22T08:38:20.451Z,956.63
2017-03-22T08:40:38.393Z,956.62
2017-03-22T08:41:18.975Z,956.65
2017-03-22T08:41:59.567Z,956.65
2017-03-22T08:42:40.147Z,956.65
2017-03-22T08:43:20.730Z,956.65
2017-03-22T08:44:01.307Z,956.62
2017-03-22T08:44:41.888Z,956.65
2017-03-22T08:45:22.467Z,956.67
2017-03-22T08:46:03.044Z,956.66
2017-03-22T08:46:43.627Z,956.64
2017-03-22T08:48:41.335Z,956.63
2017-03-22T08:49:21.929Z,956.59
2017-03-22T08:50:02.506Z,956.56
2017-03-22T08:50:43.077Z,956.54
2017-03-22T08:51:23.698Z,956.51
2017-03-22T08:52:04.251Z,956.43
2017-03-22T08:52:44.840Z,956.37